createdAt,value
2022-11-08T00:00:02.349Z,18.53
2022-11-08T00:02:29.620Z,17.93
2022-11-08T00:04:56.860Z,19.93
2022-11-08T00:07:42.519Z,20.23
2022-11-08T00:10:28.492Z,20.37
2022-11-08T00:13:14.597Z,21.37
2022-11-08T00:15:41.686Z,28.43
2022-11-08T00:18:08.831Z,18.73
2022-11-08T00:20:35.931Z,22.27
2022-11-08T00:23:03.872Z,28.10
2022-11-08T00:25:31.205Z,24.27
2022-11-08T00:27:58.361Z,28.30
2022-11-08T00:30:25.475Z,27.77
2022-11-08T00:32:52.589Z,21.90
2022-11-08T00:35:19.722Z,23.07
2022-11-08T00:37:46.844Z,31.43
2022-11-08T00:40:13.942Z,27.73
2022-11-08T00:42:41.039Z,24.57
2022-11-08T00:45:08.335Z,28.20
2022-11-08T00:47:35.445Z,24.97
2022-11-08T00:50:02.627Z,24.93
2022-11-08T00:52:29.739Z,25.43
2022-11-08T00:54:56.835Z,29.50
2022-11-08T00:57:35.936Z,27.97
2022-11-08T01:00:12.385Z,27.40
2022-11-08T01:02:39.623Z,24.13
2022-11-08T01:05:06.918Z,22.83
2022-11-08T01:07:34.371Z,27.83
2022-11-08T01:10:01.556Z,26.33
2022-11-08T01:12:28.683Z,26.37
2022-11-08T01:14:55.797Z,29.73
2022-11-08T01:17:22.912Z,26.43
2022-11-08T01:19:50.060Z,24.60
2022-11-08T01:22:17.159Z,30.30
2022-11-08T01:24:44.315Z,27.07
2022-11-08T01:27:11.497Z,27.83
2022-11-08T01:29:38.639Z,23.57
2022-11-08T01:32:05.860Z,34.57
2022-11-08T01:34:33.055Z,21.43
2022-11-08T01:37:02.238Z,27.03
2022-11-08T01:39:32.923Z,28.40
2022-11-08T01:42:00.043Z,30.57
2022-11-08T01:44:27.167Z,31.57
2022-11-08T01:46:54.328Z,25.40
2022-11-08T01:49:36.614Z,27.97
2022-11-08T01:52:10.795Z,28.30
2022-11-08T01:54:49.647Z,26.37
2022-11-08T01:57:25.934Z,33.60
2022-11-08T01:59:55.739Z,32.10
2022-11-08T02:02:23.448Z,34.27
2022-11-08T02:04:50.594Z,36.80
2022-11-08T02:07:18.222Z,35.90
2022-11-08T02:09:47.235Z,35.30
2022-11-08T02:12:15.565Z,34.07
2022-11-08T02:14:42.757Z,31.87
2022-11-08T02:17:09.912Z,37.80
2022-11-08T02:19:41.966Z,41.37
2022-11-08T02:22:14.036Z,33.27
2022-11-08T02:24:41.230Z,36.73
2022-11-08T02:27:08.469Z,34.63
2022-11-08T02:29:36.501Z,36.30
2022-11-08T02:32:04.355Z,32.47
2022-11-08T02:34:35.400Z,35.10
2022-11-08T02:37:02.977Z,41.50
2022-11-08T02:39:30.780Z,33.90
2022-11-08T02:41:58.041Z,41.87
2022-11-08T02:44:25.187Z,35.17
2022-11-08T02:46:52.299Z,37.43
2022-11-08T02:49:19.393Z,36.50
2022-11-08T02:51:46.619Z,29.30
2022-11-08T02:54:13.748Z,36.63
2022-11-08T02:56:41.377Z,40.10
2022-11-08T02:59:08.522Z,33.73
2022-11-08T03:01:35.736Z,37.20
2022-11-08T03:04:02.974Z,31.53
2022-11-08T03:06:30.134Z,37.33
2022-11-08T03:08:57.379Z,33.83
2022-11-08T03:11:24.506Z,41.40
2022-11-08T03:13:51.629Z,46.80
2022-11-08T03:16:18.735Z,36.57
2022-11-08T03:18:45.858Z,37.67
2022-11-08T03:21:13.099Z,38.23
2022-11-08T03:23:40.233Z,39.57
2022-11-08T03:26:07.649Z,38.40
2022-11-08T03:28:34.808Z,34.97
2022-11-08T03:31:02.015Z,38.30
2022-11-08T03:33:29.406Z,34.70
2022-11-08T03:35:56.639Z,32.40
2022-11-08T03:38:23.857Z,35.73
2022-11-08T03:40:50.964Z,36.93
2022-11-08T03:43:18.033Z,39.47
2022-11-08T03:45:46.598Z,31.97
2022-11-08T03:48:13.742Z,25.23
2022-11-08T03:50:40.848Z,27.03
2022-11-08T03:53:08.004Z,32.73
2022-11-08T03:55:35.167Z,31.53
2022-11-08T03:58:02.296Z,29.47
2022-11-08T04:00:29.952Z,29.03
2022-11-08T04:03:01.543Z,32.13
2022-11-08T04:05:28.639Z,30.63
2022-11-08T04:07:55.724Z,26.93
2022-11-08T04:10:22.912Z,35.40
2022-11-08T04:13:08.622Z,31.00
2022-11-08T04:15:35.834Z,26.17
2022-11-08T04:18:22.034Z,29.83
2022-11-08T04:21:08.406Z,34.37
2022-11-08T04:23:36.557Z,34.00
2022-11-08T04:26:05.378Z,28.57
2022-11-08T04:28:33.495Z,32.20
2022-11-08T04:31:02.971Z,30.43
2022-11-08T04:33:30.484Z,28.93
2022-11-08T04:36:01.784Z,27.83
2022-11-08T04:38:28.969Z,26.37
2022-11-08T04:40:59.336Z,35.53
2022-11-08T04:43:26.448Z,34.43
2022-11-08T04:45:53.571Z,25.77
2022-11-08T04:48:20.930Z,35.10
2022-11-08T04:50:48.168Z,31.10
2022-11-08T04:53:15.267Z,27.20
2022-11-08T04:55:42.382Z,25.10
2022-11-08T04:58:09.492Z,23.30
2022-11-08T05:00:36.625Z,25.37
2022-11-08T05:03:03.750Z,28.53
2022-11-08T05:05:30.844Z,29.50
2022-11-08T05:07:57.966Z,30.67
2022-11-08T05:10:25.070Z,25.57
2022-11-08T05:12:55.761Z,27.57
2022-11-08T05:15:22.866Z,22.67
2022-11-08T05:17:49.956Z,24.70
2022-11-08T05:20:35.791Z,24.13
2022-11-08T05:23:21.793Z,24.67
2022-11-08T05:25:48.935Z,29.07
2022-11-08T05:28:16.672Z,25.90
2022-11-08T05:30:44.046Z,29.87
2022-11-08T05:33:13.641Z,25.17
2022-11-08T05:35:40.769Z,26.00
2022-11-08T05:38:08.060Z,26.17
2022-11-08T05:40:35.228Z,20.90
2022-11-08T05:43:02.342Z,23.83
2022-11-08T05:45:29.577Z,24.13
2022-11-08T05:47:57.751Z,29.43
2022-11-08T05:50:25.252Z,20.17
2022-11-08T05:52:55.030Z,27.37
2022-11-08T05:55:22.186Z,23.93
2022-11-08T05:57:49.312Z,33.40
2022-11-08T06:00:16.483Z,26.13
2022-11-08T06:02:43.730Z,27.10
2022-11-08T06:05:11.464Z,21.97
2022-11-08T06:07:38.944Z,28.23
2022-11-08T06:10:06.530Z,27.37
2022-11-08T06:12:33.753Z,24.33
2022-11-08T06:15:00.927Z,27.13
2022-11-08T06:17:30.216Z,23.97
2022-11-08T06:19:57.604Z,27.33
2022-11-08T06:22:24.755Z,22.33
2022-11-08T06:24:51.921Z,22.97
2022-11-08T06:27:19.137Z,22.43
2022-11-08T06:29:46.284Z,24.23
2022-11-08T06:32:13.392Z,23.33
2022-11-08T06:34:40.646Z,26.33
2022-11-08T06:37:08.159Z,25.73
2022-11-08T06:39:35.708Z,27.40
2022-11-08T06:42:02.858Z,26.20
2022-11-08T06:44:30.136Z,25.47
2022-11-08T06:46:57.283Z,22.97
2022-11-08T06:49:24.564Z,23.97
2022-11-08T06:51:51.916Z,23.03
2022-11-08T06:54:21.079Z,25.40
2022-11-08T06:56:50.484Z,21.13
2022-11-08T06:59:17.596Z,24.27
2022-11-08T07:01:46.019Z,20.87
2022-11-08T07:04:13.314Z,18.27
2022-11-08T07:06:40.596Z,24.57
2022-11-08T07:09:07.809Z,21.57
2022-11-08T07:11:34.949Z,19.40
2022-11-08T07:14:02.102Z,17.47
2022-11-08T07:16:29.200Z,19.30
2022-11-08T07:18:56.462Z,19.47
2022-11-08T07:21:23.907Z,21.57
2022-11-08T07:23:51.083Z,20.17
2022-11-08T07:26:18.839Z,18.87
2022-11-08T07:28:45.970Z,18.67
2022-11-08T07:31:13.187Z,19.53
2022-11-08T07:33:40.369Z,17.73
2022-11-08T07:36:07.549Z,14.87
2022-11-08T07:38:34.838Z,13.83
2022-11-08T07:41:02.301Z,17.10
2022-11-08T07:43:30.186Z,16.30
2022-11-08T07:45:58.882Z,15.00
2022-11-08T07:48:26.756Z,13.23
2022-11-08T07:50:53.954Z,14.97
2022-11-08T07:53:21.289Z,17.20
2022-11-08T07:55:49.055Z,17.50
2022-11-08T07:58:16.874Z,14.37
2022-11-08T08:00:45.246Z,12.70
2022-11-08T08:03:13.954Z,12.10
2022-11-08T08:05:42.791Z,12.30
2022-11-08T08:08:09.986Z,15.50
2022-11-08T08:10:37.566Z,14.93
2022-11-08T08:13:05.181Z,13.03
2022-11-08T08:15:32.834Z,9.93
2022-11-08T08:18:01.107Z,8.10
2022-11-08T08:20:28.372Z,10.43
2022-11-08T08:22:55.501Z,12.57
2022-11-08T08:25:22.651Z,7.73
2022-11-08T08:27:56.716Z,7.20
2022-11-08T08:30:24.223Z,7.63
2022-11-08T08:33:08.514Z,8.20
2022-11-08T08:35:39.266Z,5.03
2022-11-08T08:38:07.128Z,5.23
2022-11-08T08:40:34.437Z,5.80
2022-11-08T08:43:03.265Z,4.30
2022-11-08T08:45:30.476Z,6.27
2022-11-08T08:47:58.289Z,5.83
2022-11-08T08:50:26.709Z,6.17
2022-11-08T08:52:58.213Z,7.33
2022-11-08T08:55:25.347Z,8.37
2022-11-08T08:57:52.494Z,6.87
2022-11-08T09:03:10.680Z,9.63
2022-11-08T09:05:38.073Z,9.17
2022-11-08T09:08:05.221Z,12.33
2022-11-08T09:10:32.343Z,16.17
2022-11-08T09:12:59.521Z,15.83
2022-11-08T09:15:26.691Z,22.93
2022-11-08T09:17:57.206Z,19.90
2022-11-08T09:20:24.786Z,21.30
2022-11-08T09:22:51.916Z,18.47
2022-11-08T09:25:19.191Z,19.83
2022-11-08T09:27:46.552Z,26.00
2022-11-08T09:30:13.756Z,19.37
2022-11-08T09:33:00.825Z,17.10
2022-11-08T09:35:28.375Z,26.80
2022-11-08T09:37:55.518Z,30.60
2022-11-08T09:40:24.674Z,27.20
2022-11-08T09:42:59.115Z,28.97
2022-11-08T09:45:33.474Z,28.70
2022-11-08T09:48:05.214Z,33.70
2022-11-08T09:50:39.193Z,31.53
2022-11-08T09:53:06.395Z,37.00
2022-11-08T09:55:37.642Z,32.57
2022-11-08T09:58:08.636Z,33.30
2022-11-08T10:00:37.136Z,31.23
2022-11-08T10:03:04.306Z,36.67
2022-11-08T10:05:39.721Z,29.33
2022-11-08T10:08:09.779Z,35.30
2022-11-08T10:10:57.160Z,33.77
2022-11-08T10:13:47.635Z,36.43
2022-11-08T10:16:22.427Z,32.30
2022-11-08T10:18:49.521Z,33.77
2022-11-08T10:21:36.929Z,32.93
2022-11-08T10:24:05.371Z,37.03
2022-11-08T10:26:45.772Z,38.30
2022-11-08T10:29:19.170Z,36.27
2022-11-08T10:31:47.407Z,37.73
2022-11-08T10:34:24.394Z,37.47
2022-11-08T10:36:54.686Z,38.60
2022-11-08T10:39:26.262Z,32.47
2022-11-08T10:42:08.473Z,34.73
2022-11-08T10:44:35.623Z,44.87
2022-11-08T10:47:04.217Z,37.40
2022-11-08T10:49:32.390Z,37.05
2022-11-08T10:52:13.699Z,38.90
2022-11-08T10:54:48.424Z,32.00
2022-11-08T10:57:17.646Z,41.23
2022-11-08T10:59:45.771Z,31.03
2022-11-08T11:02:21.888Z,30.43
2022-11-08T11:04:49.368Z,36.80
2022-11-08T11:07:33.789Z,32.00
2022-11-08T11:10:19.074Z,31.63
2022-11-08T11:12:50.599Z,32.07
2022-11-08T11:15:18.044Z,28.77
2022-11-08T11:17:46.547Z,33.70
2022-11-08T11:20:22.200Z,33.10
2022-11-08T11:22:49.730Z,29.33
2022-11-08T11:25:24.331Z,30.27
2022-11-08T11:27:59.643Z,31.50
2022-11-08T11:30:33.951Z,34.37
2022-11-08T11:33:03.041Z,29.70
2022-11-08T11:35:34.890Z,29.53
2022-11-08T11:38:04.031Z,25.97
2022-11-08T11:40:49.923Z,24.83
2022-11-08T11:43:36.693Z,25.10
2022-11-08T11:46:09.692Z,28.37
2022-11-08T11:48:40.358Z,26.37
2022-11-08T11:51:09.593Z,25.00
2022-11-08T11:53:39.078Z,30.27
2022-11-08T11:56:41.146Z,24.83
2022-11-08T11:59:16.483Z,21.17
2022-11-08T12:01:43.712Z,25.57
2022-11-08T12:04:10.851Z,24.83
2022-11-08T12:06:41.102Z,25.93
2022-11-08T12:09:11.314Z,25.97
2022-11-08T12:11:59.409Z,23.73
2022-11-08T12:14:26.501Z,19.10
2022-11-08T12:17:05.490Z,22.27
2022-11-08T12:19:51.095Z,25.13
2022-11-08T12:22:21.320Z,21.40
2022-11-08T12:24:57.813Z,25.00
2022-11-08T12:27:35.301Z,27.07
2022-11-08T12:30:21.369Z,21.53
2022-11-08T12:32:54.528Z,26.73
2022-11-08T12:35:30.757Z,27.70
2022-11-08T12:38:18.255Z,21.67
2022-11-08T12:40:45.587Z,22.40
2022-11-08T12:43:24.772Z,28.53
2022-11-08T12:45:58.154Z,20.00
2022-11-08T12:48:25.234Z,20.73
2022-11-08T12:51:11.739Z,18.17
2022-11-08T12:53:48.681Z,20.30
2022-11-08T12:56:18.256Z,27.40
2022-11-08T12:58:47.682Z,22.87
2022-11-08T13:01:16.208Z,24.00
2022-11-08T13:03:44.132Z,23.10
2022-11-08T13:06:18.241Z,22.47
2022-11-08T13:08:50.878Z,20.50
2022-11-08T13:11:24.877Z,19.93
2022-11-08T13:13:53.559Z,19.07
2022-11-08T13:16:27.354Z,19.27
2022-11-08T13:18:55.874Z,23.60
2022-11-08T13:21:29.968Z,22.57
2022-11-08T13:24:09.942Z,22.87
2022-11-08T13:26:43.417Z,23.40
2022-11-08T13:29:14.615Z,20.83
2022-11-08T13:32:00.500Z,19.87
2022-11-08T13:34:36.759Z,23.27
2022-11-08T13:37:22.603Z,19.60
2022-11-08T13:39:55.687Z,17.23
2022-11-08T13:42:22.798Z,22.17
2022-11-08T13:44:56.229Z,23.50
2022-11-08T13:47:43.579Z,24.97
2022-11-08T13:50:33.675Z,24.23
2022-11-08T13:53:19.279Z,19.13
2022-11-08T13:55:59.873Z,21.03
2022-11-08T13:58:35.837Z,18.60
2022-11-08T14:01:07.047Z,20.43
2022-11-08T14:03:34.198Z,23.87
2022-11-08T14:06:07.397Z,23.17
2022-11-08T14:08:43.346Z,19.13
2022-11-08T14:11:18.795Z,21.07
2022-11-08T14:13:57.724Z,18.10
2022-11-08T14:16:28.103Z,21.10
2022-11-08T14:18:55.259Z,18.93
2022-11-08T14:21:22.989Z,19.30
2022-11-08T14:23:50.920Z,17.97
2022-11-08T14:26:22.111Z,19.60
2022-11-08T14:28:51.725Z,20.27
2022-11-08T14:31:37.030Z,22.37
2022-11-08T14:34:04.291Z,20.03
2022-11-08T14:36:32.481Z,17.23
2022-11-08T14:39:11.930Z,21.23
2022-11-08T14:41:39.585Z,16.73
2022-11-08T14:44:06.763Z,18.90
2022-11-08T14:46:35.894Z,19.50
2022-11-08T14:49:15.707Z,17.17
2022-11-08T14:51:43.591Z,19.17
2022-11-08T14:54:19.595Z,23.50
2022-11-08T14:56:47.201Z,18.53
2022-11-08T14:59:14.855Z,17.57
2022-11-08T15:01:44.510Z,19.33
2022-11-08T15:04:19.267Z,21.87
2022-11-08T15:06:48.578Z,19.57
2022-11-08T15:09:27.185Z,20.73
2022-11-08T15:11:59.077Z,17.17
2022-11-08T15:14:27.391Z,13.57
2022-11-08T15:17:01.468Z,16.00
2022-11-08T15:19:32.861Z,18.63
2022-11-08T15:22:00.828Z,18.27
2022-11-08T15:24:36.522Z,18.80
2022-11-08T15:27:06.646Z,20.17
2022-11-08T15:29:53.507Z,15.53
2022-11-08T15:32:21.666Z,17.27
2022-11-08T15:34:48.988Z,17.40
2022-11-08T15:37:20.948Z,15.97
2022-11-08T15:39:48.058Z,14.10
2022-11-08T15:42:16.165Z,15.57
2022-11-08T15:45:01.907Z,15.97
2022-11-08T15:47:46.340Z,17.90
2022-11-08T15:50:21.047Z,13.53
2022-11-08T15:52:49.558Z,18.73
2022-11-08T15:55:36.964Z,16.43
2022-11-08T15:58:04.804Z,15.33
2022-11-08T16:00:38.360Z,15.60
2022-11-08T16:03:05.602Z,15.50
2022-11-08T16:05:33.063Z,16.17
2022-11-08T16:08:00.282Z,17.33
2022-11-08T16:10:31.568Z,13.73
2022-11-08T16:13:00.913Z,17.20
2022-11-08T16:15:29.659Z,16.07
2022-11-08T16:17:57.068Z,17.00
2022-11-08T16:20:27.547Z,13.90
2022-11-08T16:22:55.650Z,16.00
2022-11-08T16:25:23.433Z,16.17
2022-11-08T16:27:58.116Z,14.33
2022-11-08T16:30:25.648Z,17.37
2022-11-08T16:32:52.835Z,17.90
2022-11-08T16:35:20.043Z,17.37
2022-11-08T16:37:47.499Z,14.03
2022-11-08T16:40:14.684Z,12.80
2022-11-08T16:42:41.879Z,13.83
2022-11-08T16:45:09.359Z,14.53
2022-11-08T16:47:36.708Z,13.73
2022-11-08T16:50:04.561Z,11.27
2022-11-08T16:52:31.733Z,13.20
2022-11-08T16:54:58.825Z,15.97
2022-11-08T16:57:34.540Z,14.33
2022-11-08T17:00:02.305Z,10.03
2022-11-08T17:02:30.813Z,13.33
2022-11-08T17:04:57.934Z,14.80
2022-11-08T17:07:26.454Z,11.20
2022-11-08T17:09:53.869Z,11.53
2022-11-08T17:12:21.687Z,11.80
2022-11-08T17:14:48.888Z,12.93
2022-11-08T17:17:16.140Z,10.53
2022-11-08T17:19:43.292Z,10.57
2022-11-08T17:22:10.403Z,12.53
2022-11-08T17:24:37.595Z,11.93
2022-11-08T17:27:04.753Z,11.00
2022-11-08T17:29:32.227Z,14.33
2022-11-08T17:31:59.345Z,9.97
2022-11-08T17:34:26.486Z,11.03
2022-11-08T17:36:53.728Z,11.10
2022-11-08T17:39:20.838Z,10.27
2022-11-08T17:41:47.992Z,10.70
2022-11-08T17:44:15.222Z,9.93
2022-11-08T17:46:42.360Z,8.27
2022-11-08T17:49:10.059Z,11.83
2022-11-08T17:51:37.203Z,11.20
2022-11-08T17:54:04.418Z,10.47
2022-11-08T17:56:31.576Z,11.90
2022-11-08T17:58:58.678Z,12.57
2022-11-08T18:01:25.980Z,11.10
2022-11-08T18:03:53.226Z,8.73
2022-11-08T18:06:20.501Z,14.30
2022-11-08T18:08:47.789Z,12.77
2022-11-08T18:11:15.170Z,12.43
2022-11-08T18:13:42.405Z,10.40
2022-11-08T18:16:11.032Z,10.55
2022-11-08T18:18:38.379Z,12.83
2022-11-08T18:21:06.406Z,11.63
2022-11-08T18:23:33.547Z,12.53
2022-11-08T18:26:00.955Z,11.07
2022-11-08T18:28:28.172Z,13.33
2022-11-08T18:30:55.376Z,12.03
2022-11-08T18:33:22.759Z,12.83
2022-11-08T18:35:50.041Z,10.03
2022-11-08T18:38:17.139Z,13.27
2022-11-08T18:40:48.201Z,10.50
2022-11-08T18:43:15.623Z,12.63
2022-11-08T18:45:43.005Z,11.43
2022-11-08T18:48:10.115Z,11.63
2022-11-08T18:50:37.571Z,12.17
2022-11-08T18:53:07.023Z,11.73
2022-11-08T18:55:34.699Z,16.37
2022-11-08T18:58:02.190Z,11.80
2022-11-08T19:00:29.315Z,11.17
2022-11-08T19:02:56.607Z,13.97
2022-11-08T19:05:23.782Z,11.17
2022-11-08T19:07:51.063Z,12.20
2022-11-08T19:10:18.281Z,13.77
2022-11-08T19:12:45.437Z,12.27
2022-11-08T19:15:12.672Z,12.87
2022-11-08T19:17:39.777Z,10.50
2022-11-08T19:20:07.240Z,15.73
2022-11-08T19:22:34.356Z,16.17
2022-11-08T19:25:01.491Z,15.27
2022-11-08T19:27:28.600Z,11.70
2022-11-08T19:29:55.735Z,11.93
2022-11-08T19:32:23.246Z,12.90
2022-11-08T19:34:50.448Z,12.37
2022-11-08T19:37:17.704Z,11.23
2022-11-08T19:39:44.860Z,13.40
2022-11-08T19:42:11.987Z,13.93
2022-11-08T19:44:42.221Z,12.13
2022-11-08T19:47:09.330Z,14.40
2022-11-08T19:49:37.077Z,13.90
2022-11-08T19:52:04.206Z,13.63
2022-11-08T19:54:31.336Z,15.20
2022-11-08T19:57:06.469Z,12.30
2022-11-08T19:59:33.889Z,10.73
2022-11-08T20:02:01.129Z,14.77
2022-11-08T20:04:28.318Z,11.83
2022-11-08T20:06:55.500Z,11.10
2022-11-08T20:09:27.410Z,14.27
2022-11-08T20:11:57.367Z,14.43
2022-11-08T20:14:24.519Z,16.67
2022-11-08T20:16:53.637Z,11.90
2022-11-08T20:19:20.966Z,13.80
2022-11-08T20:21:48.224Z,15.43
2022-11-08T20:24:15.707Z,16.43
2022-11-08T20:26:43.102Z,11.67
2022-11-08T20:29:10.369Z,13.90
2022-11-08T20:31:38.688Z,15.73
2022-11-08T20:34:09.829Z,12.33
2022-11-08T20:36:37.803Z,15.27
2022-11-08T20:39:07.648Z,14.57
2022-11-08T20:41:37.110Z,11.20
2022-11-08T20:44:05.243Z,16.83
2022-11-08T20:46:33.193Z,17.60
2022-11-08T20:49:01.347Z,12.23
2022-11-08T20:51:29.867Z,16.07
2022-11-08T20:53:57.398Z,14.10
2022-11-08T20:56:25.219Z,17.00
2022-11-08T20:58:52.897Z,13.53
2022-11-08T21:01:21.489Z,13.13
2022-11-08T21:03:49.144Z,19.20
2022-11-08T21:06:18.092Z,14.83
2022-11-08T21:09:08.236Z,19.50
2022-11-08T21:11:34.581Z,15.73
2022-11-08T21:14:02.084Z,16.23
2022-11-08T21:16:31.896Z,16.27
2022-11-08T21:19:00.632Z,13.80
2022-11-08T21:21:27.901Z,15.50
2022-11-08T21:23:55.057Z,17.40
2022-11-08T21:26:22.734Z,16.80
2022-11-08T21:28:49.942Z,12.53
2022-11-08T21:31:17.181Z,17.03
2022-11-08T21:33:44.403Z,15.53
2022-11-08T21:36:12.626Z,15.70
2022-11-08T21:38:40.382Z,12.63
2022-11-08T21:41:08.639Z,16.27
2022-11-08T21:43:40.086Z,14.07
2022-11-08T21:46:26.474Z,15.97
2022-11-08T21:48:54.719Z,17.23
2022-11-08T21:51:21.966Z,13.03
2022-11-08T21:53:54.744Z,14.80
2022-11-08T21:56:23.367Z,11.50
2022-11-08T21:58:50.504Z,14.10
2022-11-08T22:01:17.857Z,15.57
2022-11-08T22:03:45.083Z,16.33
2022-11-08T22:06:12.251Z,15.27
2022-11-08T22:08:39.362Z,12.13
2022-11-08T22:11:06.615Z,13.07
2022-11-08T22:13:33.817Z,11.40
2022-11-08T22:16:01.007Z,15.63
2022-11-08T22:18:43.475Z,15.50
2022-11-08T22:21:50.544Z,15.87
2022-11-08T22:24:20.193Z,15.67
2022-11-08T22:26:47.915Z,15.10
2022-11-08T22:29:16.359Z,15.17
2022-11-08T22:31:43.571Z,13.77
2022-11-08T22:34:11.239Z,15.77
2022-11-08T22:36:44.356Z,13.43
2022-11-08T22:39:15.737Z,17.70
2022-11-08T22:41:47.196Z,18.00
2022-11-08T22:44:14.604Z,15.70
2022-11-08T22:46:42.648Z,18.53
2022-11-08T22:49:10.448Z,16.37
2022-11-08T22:51:37.943Z,13.87
2022-11-08T22:54:05.117Z,16.20
2022-11-08T22:56:32.268Z,14.97
2022-11-08T22:58:59.424Z,17.43
2022-11-08T23:01:26.540Z,15.23
2022-11-08T23:03:53.642Z,13.80
2022-11-08T23:06:20.739Z,15.33
2022-11-08T23:08:47.971Z,13.27
2022-11-08T23:11:33.984Z,12.23
2022-11-08T23:14:19.923Z,16.57
2022-11-08T23:16:47.185Z,12.83
2022-11-08T23:19:34.515Z,14.67
2022-11-08T23:22:20.659Z,15.20
2022-11-08T23:24:47.855Z,13.17
2022-11-08T23:27:36.091Z,12.73
2022-11-08T23:30:22.102Z,12.73
2022-11-08T23:32:49.972Z,18.07
2022-11-08T23:35:17.711Z,12.30
2022-11-08T23:37:45.236Z,12.13
2022-11-08T23:40:31.994Z,12.00
2022-11-08T23:43:23.617Z,13.13
2022-11-08T23:45:50.802Z,13.87
2022-11-08T23:48:18.093Z,17.60
2022-11-08T23:50:51.862Z,14.83
2022-11-08T23:53:20.118Z,16.80
2022-11-08T23:55:47.579Z,13.60
2022-11-08T23:58:15.225Z,17.10
